Time;durP1;ratioP1;P1;durP2;ratioP2;P2;SDS_P1;SDS_P2;PMS_P1;PMS_P2;Temp;Humidity;BMP_temperature;BMP_pressure;BME280_temperature;BME280_humidity;BME280_pressure;Samples;Min_cycle;Max_cycle;Signal;HPM_P1;HPM_P2
2022/04/14 00:01:13;;;;;;;;;;;;;;;20.75;44.59;101866.97;4994256;28;19921;-84
2022/04/14 00:03:40;;;;;;;;;;;;;;;20.76;44.48;101862.28;5007753;28;19981;-82
2022/04/14 00:06:05;;;;;;;;;;;;;;;20.77;44.45;101863.13;5012105;28;19922;-83
2022/04/14 00:08:30;;;;;;;;;;;;;;;20.74;44.70;101862.59;5015864;28;19921;-83
2022/04/14 00:10:55;;;;;;;;;;;;;;;20.74;44.75;101865.34;5008548;28;19928;-83
2022/04/14 00:13:21;;;;;;;;;;;;;;;20.74;44.75;101861.78;5006739;28;19926;-83
2022/04/14 00:15:46;;;;;;;;;;;;;;;20.74;44.46;101861.78;4988935;28;19926;-83
2022/04/14 00:18:11;;;;;;;;;;;;;;;20.73;44.65;101865.63;4992263;28;19926;-83
2022/04/14 00:20:36;;;;;;;;;;;;;;;20.73;44.54;101857.38;4986516;28;19969;-83
2022/04/14 00:23:02;;;;;;;;;;;;;;;20.72;44.70;101858.50;4996474;28;19926;-83
2022/04/14 00:25:27;;;;;;;;;;;;;;;20.72;44.77;101853.00;5006904;28;19956;-83
2022/04/14 00:27:52;;;;;;;;;;;;;;;20.71;44.71;101851.34;4998949;28;19932;-83
2022/04/14 00:30:17;;;;;;;;;;;;;;;20.70;44.51;101855.22;4979166;28;20453;-83
2022/04/14 00:32:43;;;;;;;;;;;;;;;20.71;44.65;101851.34;4993484;28;20020;-86
2022/04/14 00:35:08;;;;;;;;;;;;;;;20.70;44.48;101846.97;5011827;28;19930;-83
2022/04/14 00:37:33;;;;;;;;;;;;;;;20.70;44.68;101846.97;5014394;28;20519;-84
2022/04/14 00:39:58;;;;;;;;;;;;;;;20.68;44.47;101846.44;4994855;28;19934;-85
2022/04/14 00:42:24;;;;;;;;;;;;;;;20.69;44.66;101848.91;5001804;28;20321;-83
2022/04/14 00:44:49;;;;;;;;;;;;;;;20.67;44.40;101845.63;4998351;28;19922;-83
2022/04/14 00:47:15;;;;;;;;;;;;;;;20.68;44.49;101846.44;4997111;28;19918;-83
2022/04/14 00:49:41;;;;;;;;;;;;;;;20.68;44.37;101843.69;5004193;28;20366;-82
2022/04/14 00:52:06;;;;;;;;;;;;;;;20.67;44.59;101851.09;5003845;28;19983;-83
2022/04/14 00:54:32;;;;;;;;;;;;;;;20.66;44.37;101843.97;5010766;28;19929;-82
2022/04/14 00:57:01;;;;;;;;;;;;;;;20.66;44.62;101838.50;4995498;28;19964;-83
2022/04/14 00:59:27;;;;;;;;;;;;;;;20.66;44.70;101840.41;4995222;28;20366;-83
2022/04/14 01:01:53;;;;;;;;;;;;;;;20.65;44.63;101836.03;5003242;28;19925;-83
2022/04/14 01:04:19;;;;;;;;;;;;;;;20.64;44.55;101846.19;5014209;28;19969;-83
2022/04/14 01:06:44;;;;;;;;;;;;;;;20.64;44.73;101835.22;4997024;28;19968;-83
2022/04/14 01:09:16;;;;;;;;;;;;;;;20.64;44.58;101843.44;5011605;28;19917;-83
2022/04/14 01:11:42;;;;;;;;;;;;;;;20.63;44.52;101844.53;5014187;28;20361;-83
2022/04/14 01:14:08;;;;;;;;;;;;;;;20.63;44.61;101838.22;5012888;28;19924;-83
2022/04/14 01:16:33;;;;;;;;;;;;;;;20.63;44.52;101835.47;4977469;28;20012;-83
2022/04/14 01:18:59;;;;;;;;;;;;;;;20.62;44.44;101839.34;5011334;28;19937;-82
2022/04/14 01:21:28;;;;;;;;;;;;;;;20.63;44.63;101839.03;4994605;28;19929;-83
2022/04/14 01:23:53;;;;;;;;;;;;;;;20.63;44.43;101832.72;5010891;28;19917;-83
2022/04/14 01:26:19;;;;;;;;;;;;;;;20.62;44.59;101839.34;4988692;28;19933;-83
2022/04/14 01:28:44;;;;;;;;;;;;;;;20.62;44.78;101834.66;4995579;28;19918;-83
2022/04/14 01:31:09;;;;;;;;;;;;;;;20.63;44.68;101838.22;4995348;28;19945;-84
2022/04/14 01:33:34;;;;;;;;;;;;;;;20.62;44.74;101834.66;4977560;28;19921;-83
2022/04/14 01:36:00;;;;;;;;;;;;;;;20.61;44.36;101835.75;4977354;28;19929;-83
2022/04/14 01:38:25;;;;;;;;;;;;;;;20.61;44.46;101835.75;4996957;28;20013;-82
2022/04/14 01:40:50;;;;;;;;;;;;;;;20.62;44.66;101831.91;4994826;28;20318;-86
2022/04/14 01:43:15;;;;;;;;;;;;;;;20.61;44.64;101835.75;4977324;28;20012;-82
2022/04/14 01:45:46;;;;;;;;;;;;;;;20.61;44.32;101833.00;5010263;28;19926;-82
2022/04/14 01:48:12;;;;;;;;;;;;;;;20.60;44.50;101834.13;5012380;28;19918;-82
2022/04/14 01:50:37;;;;;;;;;;;;;;;20.61;44.72;101841.25;5014631;28;19924;-82
2022/04/14 01:53:02;;;;;;;;;;;;;;;20.61;44.44;101843.16;5005465;28;19972;-82
2022/04/14 01:55:27;;;;;;;;;;;;;;;20.60;44.56;101845.09;5009990;28;20012;-82
2022/04/14 01:57:52;;;;;;;;;;;;;;;20.60;44.51;101844.28;5009488;28;20259;-89
2022/04/14 02:00:18;;;;;;;;;;;;;;;20.59;44.48;101837.13;4996363;28;19926;-82
2022/04/14 02:02:43;;;;;;;;;;;;;;;20.60;44.32;101847.03;4996131;28;19961;-82
2022/04/14 02:05:09;;;;;;;;;;;;;;;20.59;44.47;101848.97;5012336;28;20286;-82
2022/04/14 02:07:34;;;;;;;;;;;;;;;20.58;44.63;101852.78;4990668;28;19926;-82
2022/04/14 02:09:59;;;;;;;;;;;;;;;20.58;44.48;101852.78;5003548;28;20377;-83
2022/04/14 02:12:25;;;;;;;;;;;;;;;20.59;44.45;101859.09;5013019;28;19917;-82
2022/04/14 02:14:50;;;;;;;;;;;;;;;20.58;44.59;101858.28;5014124;28;20409;-82
2022/04/14 02:17:15;;;;;;;;;;;;;;;20.57;44.33;101859.41;4995422;28;20337;-82
2022/04/14 02:19:40;;;;;;;;;;;;;;;20.57;44.61;101856.66;4996446;28;20424;-83
2022/04/14 02:22:06;;;;;;;;;;;;;;;20.57;44.32;101859.41;5008492;28;19926;-82
2022/04/14 02:24:31;;;;;;;;;;;;;;;20.57;44.64;101853.91;5004258;28;19922;-85
2022/04/14 02:26:56;;;;;;;;;;;;;;;20.57;44.27;101861.34;5012550;28;20318;-83
2022/04/14 02:29:21;;;;;;;;;;;;;;;20.56;44.49;101860.50;4984950;28;19940;-82
2022/04/14 02:31:47;;;;;;;;;;;;;;;20.57;44.39;101861.34;4992897;28;19921;-83
2022/04/14 02:34:12;;;;;;;;;;;;;;;20.56;44.27;101857.75;5000035;28;20715;-83
2022/04/14 02:36:37;;;;;;;;;;;;;;;20.56;44.30;101863.22;5008903;28;20000;-82
2022/04/14 02:39:03;;;;;;;;;;;;;;;20.56;44.45;101865.16;5003475;28;20301;-82
2022/04/14 02:41:28;;;;;;;;;;;;;;;20.55;44.34;101864.34;4993286;28;19972;-83
2022/04/14 02:43:54;;;;;;;;;;;;;;;20.55;44.41;101864.34;4994058;28;20016;-84
2022/04/14 02:46:19;;;;;;;;;;;;;;;20.55;44.56;101863.53;4975906;28;19926;-82
2022/04/14 02:48:44;;;;;;;;;;;;;;;20.55;44.34;101863.53;4993766;28;19961;-83
2022/04/14 02:51:09;;;;;;;;;;;;;;;20.53;44.60;101858.28;5009403;28;20373;-82
2022/04/14 02:53:35;;;;;;;;;;;;;;;20.55;44.50;101860.78;5012890;28;19929;-83
2022/04/14 02:56:00;;;;;;;;;;;;;;;20.53;44.40;101858.28;5001504;28;19944;-83
2022/04/14 02:58:26;;;;;;;;;;;;;;;20.53;44.27;101861.03;5011438;28;20370;-82
2022/04/14 03:00:51;;;;;;;;;;;;;;;20.53;44.68;101855.53;5005452;28;19968;-81
2022/04/14 03:03:17;;;;;;;;;;;;;;;20.52;44.43;101851.16;5001509;28;20032;-81
2022/04/14 03:05:42;;;;;;;;;;;;;;;20.53;44.61;101855.53;5011160;28;19922;-82
2022/04/14 03:08:08;;;;;;;;;;;;;;;20.51;44.33;101858.59;4994295;28;19968;-82
2022/04/14 03:10:33;;;;;;;;;;;;;;;20.52;44.29;101856.66;4996817;28;19926;-81
2022/04/14 03:12:58;;;;;;;;;;;;;;;20.52;44.71;101864.88;4986005;28;19930;-89
2022/04/14 03:15:23;;;;;;;;;;;;;;;20.51;44.59;101863.22;5007920;28;20008;-81
2022/04/14 03:17:50;;;;;;;;;;;;;;;20.51;44.57;101865.97;4992361;28;20033;-83
2022/04/14 03:20:16;;;;;;;;;;;;;;;20.51;44.51;101857.75;4993059;28;19926;-83
2022/04/14 03:22:41;;;;;;;;;;;;;;;20.51;44.39;101860.47;5011670;28;19975;-82
2022/04/14 03:25:08;;;;;;;;;;;;;;;20.49;44.57;101855.28;5003703;28;19918;-83
2022/04/14 03:27:33;;;;;;;;;;;;;;;20.50;44.32;101858.84;4999531;28;19956;-83
2022/04/14 03:29:59;;;;;;;;;;;;;;;20.49;44.54;101857.22;4988898;28;19976;-86
2022/04/14 03:32:25;;;;;;;;;;;;;;;20.49;44.36;101854.47;4998610;28;20440;-82
2022/04/14 03:34:51;;;;;;;;;;;;;;;20.49;44.60;101857.22;5008837;28;19933;-82
2022/04/14 03:37:16;;;;;;;;;;;;;;;20.48;44.32;101861.88;4993016;28;19918;-82
2022/04/14 03:39:41;;;;;;;;;;;;;;;20.48;44.69;101861.88;5010110;28;19929;-82
2022/04/14 03:42:07;;;;;;;;;;;;;;;20.49;44.31;101862.72;4997123;28;20024;-82
2022/04/14 03:44:32;;;;;;;;;;;;;;;20.48;44.38;101864.63;4996401;28;19965;-82
2022/04/14 03:46:57;;;;;;;;;;;;;;;20.47;44.39;101867.66;5002216;28;20020;-82
2022/04/14 03:49:22;;;;;;;;;;;;;;;20.48;44.62;101874.78;4996692;28;19968;-82
2022/04/14 03:51:48;;;;;;;;;;;;;;;20.47;44.35;101868.47;5006158;28;19925;-82
2022/04/14 03:54:13;;;;;;;;;;;;;;;20.47;44.34;101876.72;5007993;28;20358;-82
2022/04/14 03:56:38;;;;;;;;;;;;;;;20.47;44.48;101864.91;5014442;28;20356;-83
2022/04/14 03:59:03;;;;;;;;;;;;;;;20.47;44.17;101878.63;4997139;28;19987;-87
2022/04/14 04:01:29;;;;;;;;;;;;;;;20.46;44.35;101875.09;5015071;28;19929;-84
2022/04/14 04:03:54;;;;;;;;;;;;;;;20.45;44.39;101878.09;5001214;28;19921;-82
2022/04/14 04:06:19;;;;;;;;;;;;;;;20.46;44.38;101886.06;5013308;28;19925;-83
2022/04/14 04:08:44;;;;;;;;;;;;;;;20.45;44.35;101880.84;4997652;28;20541;-83
2022/04/14 04:11:10;;;;;;;;;;;;;;;20.45;44.52;101878.91;4998141;28;19922;-83
2022/04/14 04:13:35;;;;;;;;;;;;;;;20.44;44.46;101877.28;4988074;28;19925;-84
2022/04/14 04:16:00;;;;;;;;;;;;;;;20.45;44.62;101883.59;5002560;28;19933;-83
2022/04/14 04:18:25;;;;;;;;;;;;;;;20.44;44.47;101880.03;5004958;28;19933;-83
2022/04/14 04:20:51;;;;;;;;;;;;;;;20.44;44.26;101887.44;4995945;28;19969;-82
2022/04/14 04:23:16;;;;;;;;;;;;;;;20.43;44.42;101877.53;4987057;28;20044;-83
2022/04/14 04:25:41;;;;;;;;;;;;;;;20.43;44.25;101885.78;5011519;28;19922;-83
2022/04/14 04:28:07;;;;;;;;;;;;;;;20.42;44.44;101884.97;4985751;28;19932;-83
2022/04/14 04:30:32;;;;;;;;;;;;;;;20.42;44.40;101884.97;5015167;28;20407;-82
2022/04/14 04:32:57;;;;;;;;;;;;;;;20.41;44.35;101888.81;5005868;28;19925;-83
2022/04/14 04:35:23;;;;;;;;;;;;;;;20.42;44.43;101890.47;4996370;28;19922;-83
2022/04/14 04:37:48;;;;;;;;;;;;;;;20.41;44.55;101886.09;4997077;28;19922;-83
2022/04/14 04:40:14;;;;;;;;;;;;;;;20.41;44.43;101888.81;5000638;28;19921;-83
2022/04/14 04:42:39;;;;;;;;;;;;;;;20.41;44.17;101883.34;4991073;28;19926;-84
2022/04/14 04:45:04;;;;;;;;;;;;;;;20.41;44.62;101887.97;5004063;28;19928;-84
2022/04/14 04:47:30;;;;;;;;;;;;;;;20.40;44.30;101884.41;4994978;28;19922;-84
2022/04/14 04:49:55;;;;;;;;;;;;;;;20.40;44.38;101892.66;4994597;28;19926;-83
2022/04/14 04:52:20;;;;;;;;;;;;;;;20.40;44.30;101889.09;4996055;28;20023;-84
2022/04/14 04:54:45;;;;;;;;;;;;;;;20.40;44.52;101897.31;4997900;28;19980;-83
2022/04/14 04:57:11;;;;;;;;;;;;;;;20.40;44.38;101894.59;5014103;28;19921;-84
2022/04/14 04:59:36;;;;;;;;;;;;;;;20.38;44.32;101897.59;5013755;28;19948;-83
2022/04/14 05:02:01;;;;;;;;;;;;;;;20.38;44.49;101894.84;5010772;28;20016;-84
2022/04/14 05:04:27;;;;;;;;;;;;;;;20.38;44.56;101897.59;5009649;28;19917;-83
2022/04/14 05:06:52;;;;;;;;;;;;;;;20.38;44.52;101902.28;5001561;28;20269;-84
2022/04/14 05:09:17;;;;;;;;;;;;;;;20.38;44.39;101902.28;5006474;28;19922;-83
2022/04/14 05:11:43;;;;;;;;;;;;;;;20.38;44.52;101908.56;4997437;28;20004;-84
2022/04/14 05:14:09;;;;;;;;;;;;;;;20.37;44.57;101906.94;4995738;28;19961;-87
2022/04/14 05:16:34;;;;;;;;;;;;;;;20.37;44.24;101908.88;5013584;28;20365;-83
2022/04/14 05:19:00;;;;;;;;;;;;;;;20.37;44.24;101919.84;5005631;28;19932;-83
2022/04/14 05:21:25;;;;;;;;;;;;;;;20.37;44.30;101917.91;5010421;28;20437;-84
2022/04/14 05:23:50;;;;;;;;;;;;;;;20.36;44.24;101919.03;5013738;28;20417;-84
2022/04/14 05:26:16;;;;;;;;;;;;;;;20.36;44.39;101926.41;5007246;28;20374;-83
2022/04/14 05:28:41;;;;;;;;;;;;;;;20.35;44.25;101928.34;4994698;28;19922;-83
2022/04/14 05:31:06;;;;;;;;;;;;;;;20.36;44.13;101930.00;4995557;28;19921;-83
2022/04/14 05:33:31;;;;;;;;;;;;;;;20.35;44.51;101931.09;4993723;28;19977;-84
2022/04/14 05:35:57;;;;;;;;;;;;;;;20.36;44.14;101931.91;5005932;28;19921;-83
2022/04/14 05:38:22;;;;;;;;;;;;;;;20.34;44.27;101939.63;4997000;28;19921;-84
2022/04/14 05:40:47;;;;;;;;;;;;;;;20.34;44.19;101940.44;4997044;28;20016;-85
2022/04/14 05:43:16;;;;;;;;;;;;;;;20.35;44.39;101944.00;4996664;28;19964;-89
2022/04/14 05:45:44;;;;;;;;;;;;;;;20.35;44.26;101952.22;5001350;28;19918;-85
2022/04/14 05:48:10;;;;;;;;;;;;;;;20.33;44.26;101947.00;5008310;28;19936;-83
2022/04/14 05:50:35;;;;;;;;;;;;;;;20.32;44.15;101946.19;4995033;28;20385;-82
2022/04/14 05:53:01;;;;;;;;;;;;;;;20.33;44.21;101955.25;4996472;28;19925;-82
2022/04/14 05:55:26;;;;;;;;;;;;;;;20.32;44.13;101951.69;5007423;28;20290;-83
2022/04/14 05:57:51;;;;;;;;;;;;;;;20.32;44.45;101954.44;4977468;28;19922;-83
2022/04/14 06:00:16;;;;;;;;;;;;;;;20.32;44.22;101959.91;4990422;28;19929;-83
2022/04/14 06:02:42;;;;;;;;;;;;;;;20.32;44.43;101959.09;5013863;28;19928;-83
2022/04/14 06:05:07;;;;;;;;;;;;;;;20.32;44.36;101962.66;4999583;28;20428;-82
2022/04/14 06:07:33;;;;;;;;;;;;;;;20.32;44.34;101965.41;4993901;28;19926;-83
2022/04/14 06:09:58;;;;;;;;;;;;;;;20.32;44.30;101965.41;5008068;28;19928;-83
2022/04/14 06:12:23;;;;;;;;;;;;;;;20.32;44.44;101964.59;5011066;28;20444;-83
2022/04/14 06:14:49;;;;;;;;;;;;;;;20.32;44.54;101959.91;4992056;28;19930;-82
2022/04/14 06:17:15;;;;;;;;;;;;;;;20.32;44.23;101968.16;5005909;28;19961;-87
2022/04/14 06:19:40;;;;;;;;;;;;;;;20.32;44.38;101965.41;5005820;28;19952;-83
2022/04/14 06:22:05;;;;;;;;;;;;;;;20.32;44.33;101954.44;4996450;28;19971;-82
2022/04/14 06:24:31;;;;;;;;;;;;;;;20.33;44.58;101955.25;4994923;28;20036;-84
2022/04/14 06:26:56;;;;;;;;;;;;;;;20.35;44.39;101960.47;5011971;28;19922;-90
2022/04/14 06:29:21;;;;;;;;;;;;;;;20.36;44.50;101957.44;4994863;28;20366;-88
2022/04/14 06:31:46;;;;;;;;;;;;;;;20.37;44.50;101955.53;4995625;28;19921;-84
2022/04/14 06:34:12;;;;;;;;;;;;;;;20.37;44.76;101955.53;5009216;28;19921;-82
2022/04/14 06:36:37;;;;;;;;;;;;;;;20.38;44.44;101957.16;4996394;28;19929;-81
2022/04/14 06:39:03;;;;;;;;;;;;;;;20.40;44.71;101960.44;5011554;28;20022;-85
2022/04/14 06:41:28;;;;;;;;;;;;;;;20.41;44.74;101964.81;4991132;28;20297;-88
2022/04/14 06:43:54;;;;;;;;;;;;;;;20.42;44.75;101963.75;5000071;28;19972;-80
2022/04/14 06:46:19;;;;;;;;;;;;;;;20.43;44.70;101968.94;5010627;28;19961;-82
2022/04/14 06:48:45;;;;;;;;;;;;;;;20.44;44.74;101967.84;5002696;28;19959;-78
2022/04/14 06:51:10;;;;;;;;;;;;;;;20.45;45.06;101964.00;5005751;28;19988;-81
2022/04/14 06:53:37;;;;;;;;;;;;;;;20.46;45.05;101957.41;5016063;28;20375;-81
2022/04/14 06:56:04;;;;;;;;;;;;;;;20.47;45.07;101961.78;5015107;28;19925;-81
2022/04/14 06:58:29;;;;;;;;;;;;;;;20.47;44.94;101970.03;4995432;28;20475;-80
2022/04/14 07:00:54;;;;;;;;;;;;;;;20.48;45.24;101965.34;5021579;28;19928;-81
2022/04/14 07:03:26;;;;;;;;;;;;;;;20.48;45.17;101970.84;4996114;28;20340;-83
2022/04/14 07:05:54;;;;;;;;;;;;;;;20.48;45.18;101970.84;5011091;28;19921;-81
2022/04/14 07:08:19;;;;;;;;;;;;;;;20.49;45.13;101967.00;5003128;28;19940;-84
2022/04/14 07:10:45;;;;;;;;;;;;;;;20.48;45.26;101965.34;5008616;28;19918;-79
2022/04/14 07:13:10;;;;;;;;;;;;;;;20.47;45.15;101961.78;4985772;28;20011;-79
2022/04/14 07:15:35;;;;;;;;;;;;;;;20.48;44.98;101965.34;4989574;28;20374;-79
2022/04/14 07:18:01;;;;;;;;;;;;;;;20.48;45.00;101973.59;4997055;28;19926;-81
2022/04/14 07:20:29;;;;;;;;;;;;;;;20.48;45.23;101977.16;4991895;28;19925;-81
2022/04/14 07:22:55;;;;;;;;;;;;;;;20.49;45.34;101980.75;5001441;28;19922;-80
2022/04/14 07:25:21;;;;;;;;;;;;;;;20.48;45.16;101979.06;4992006;28;19925;-86
2022/04/14 07:27:46;;;;;;;;;;;;;;;20.48;45.38;101979.88;4990311;28;20392;-81
2022/04/14 07:30:12;;;;;;;;;;;;;;;20.48;45.00;101979.06;4998861;28;19926;-80
2022/04/14 07:32:43;;;;;;;;;;;;;;;20.49;44.92;101980.75;4994929;28;19918;-81
2022/04/14 07:35:08;;;;;;;;;;;;;;;20.49;45.16;101983.47;4991183;28;20362;-80
2022/04/14 07:37:36;;;;;;;;;;;;;;;20.49;45.18;101983.47;4972935;28;19961;-76
2022/04/14 07:40:01;;;;;;;;;;;;;;;20.50;45.34;101991.41;4990360;28;19972;-80
2022/04/14 07:42:33;;;;;;;;;;;;;;;20.50;45.31;101993.34;4992960;28;19953;-82
2022/04/14 07:44:59;;;;;;;;;;;;;;;20.50;45.11;101988.66;4991407;28;20379;-82
2022/04/14 07:47:24;;;;;;;;;;;;;;;20.51;44.92;101984.00;5000252;28;19922;-82
2022/04/14 07:49:49;;;;;;;;;;;;;;;20.50;45.30;101991.41;5007761;28;20020;-84
2022/04/14 07:52:15;;;;;;;;;;;;;;;20.51;45.34;101998.56;4998910;28;20270;-85
2022/04/14 07:54:40;;;;;;;;;;;;;;;20.54;45.32;101994.44;5009796;28;19921;-83
2022/04/14 07:57:05;;;;;;;;;;;;;;;20.55;45.45;101990.63;5014003;28;19949;-81
2022/04/14 07:59:30;;;;;;;;;;;;;;;20.55;45.06;101990.63;5004141;28;19930;-82
2022/04/14 08:02:00;;;;;;;;;;;;;;;20.58;45.42;102001.03;4992764;28;19980;-82
2022/04/14 08:04:26;;;;;;;;;;;;;;;20.59;45.36;101997.19;4993229;28;19928;-82
2022/04/14 08:06:51;;;;;;;;;;;;;;;20.60;45.22;101998.84;5007503;28;19949;-82
2022/04/14 08:09:16;;;;;;;;;;;;;;;20.61;45.15;102000.47;4990265;28;19948;-83
2022/04/14 08:11:42;;;;;;;;;;;;;;;20.62;45.18;101993.88;5018861;28;20008;-84
2022/04/14 08:14:07;;;;;;;;;;;;;;;20.63;45.01;101995.53;5005005;28;19972;-83
2022/04/14 08:16:32;;;;;;;;;;;;;;;20.64;45.14;101999.13;5021186;28;20688;-86
2022/04/14 08:18:58;;;;;;;;;;;;;;;20.65;45.00;102006.22;5021151;28;19965;-84
2022/04/14 08:21:24;;;;;;;;;;;;;;;20.66;45.17;102000.47;4996246;28;20374;-84
2022/04/14 08:23:51;;;;;;;;;;;;;;;20.67;45.18;102004.84;5011056;28;20008;-86
2022/04/14 08:26:17;;;;;;;;;;;;;;;20.68;44.94;102011.16;5013758;28;20289;-85
2022/04/14 08:28:43;;;;;;;;;;;;;;;20.68;45.21;102011.97;4999860;28;19929;-85
2022/04/14 08:31:09;;;;;;;;;;;;;;;20.70;45.16;102007.03;5016543;28;19918;-85
2022/04/14 08:33:36;;;;;;;;;;;;;;;20.70;44.84;102004.28;5021453;28;19956;-85
2022/04/14 08:36:02;;;;;;;;;;;;;;;20.72;44.97;102004.84;5020917;28;19924;-84
2022/04/14 08:38:27;;;;;;;;;;;;;;;20.72;44.99;102001.28;5002681;28;19922;-85
2022/04/14 08:40:57;;;;;;;;;;;;;;;20.73;44.84;102002.91;5020785;28;20475;-84
2022/04/14 08:43:27;;;;;;;;;;;;;;;20.74;44.81;102005.38;5007312;28;19922;-84
2022/04/14 08:45:53;;;;;;;;;;;;;;;20.74;44.75;101994.41;5010721;28;19917;-79
2022/04/14 08:48:20;;;;;;;;;;;;;;;20.75;44.76;102000.69;5011185;28;19936;-81
2022/04/14 08:50:48;;;;;;;;;;;;;;;20.75;44.83;102001.53;5013364;28;20604;-81
2022/04/14 08:53:14;;;;;;;;;;;;;;;20.78;44.86;102010.31;5022668;28;19940;-85
2022/04/14 08:55:41;;;;;;;;;;;;;;;20.78;45.07;102005.63;5017147;28;19922;-83
2022/04/14 08:58:06;;;;;;;;;;;;;;;20.79;44.73;102004.53;5013109;28;20445;-83
2022/04/14 09:00:32;;;;;;;;;;;;;;;20.80;44.69;102003.44;5025837;28;20043;-80
2022/04/14 09:02:59;;;;;;;;;;;;;;;20.81;44.85;102007.00;5000645;28;19925;-83
2022/04/14 09:05:24;;;;;;;;;;;;;;;20.81;44.58;102009.72;5015596;28;20369;-81
2022/04/14 09:07:50;;;;;;;;;;;;;;;20.82;44.97;102000.41;5010220;28;19976;-81
2022/04/14 09:10:16;;;;;;;;;;;;;;;20.83;44.55;101999.28;5015435;28;20377;-84
2022/04/14 09:12:41;;;;;;;;;;;;;;;20.84;44.77;101998.19;5008222;28;19921;-83
2022/04/14 09:15:07;;;;;;;;;;;;;;;20.85;44.89;101999.84;5009719;28;19963;-82
2022/04/14 09:17:32;;;;;;;;;;;;;;;20.86;44.76;101985.81;4991937;28;20348;-80
2022/04/14 09:19:57;;;;;;;;;;;;;;;20.87;44.75;101992.16;4991148;28;20341;-79
2022/04/14 09:22:23;;;;;;;;;;;;;;;20.86;44.69;101985.81;5003493;28;19925;-82
2022/04/14 09:24:49;;;;;;;;;;;;;;;20.88;44.67;101975.38;5011730;28;20540;-82
2022/04/14 09:27:27;;;;;;;;;;;;;;;20.89;44.68;101973.44;5009990;28;20415;-86
2022/04/14 09:29:53;;;;;;;;;;;;;;;20.89;44.71;101960.56;5015741;28;19929;-82
2022/04/14 09:32:33;;;;;;;;;;;;;;;20.91;44.68;101960.25;5011181;28;19975;-81
2022/04/14 09:35:00;;;;;;;;;;;;;;;20.90;44.53;101956.69;5005782;28;20393;-81
2022/04/14 09:37:26;;;;;;;;;;;;;;;20.92;44.50;101961.91;5006539;28;19929;-80
2022/04/14 09:39:52;;;;;;;;;;;;;;;20.92;44.82;101959.16;5011814;28;19926;-83
2022/04/14 09:42:19;;;;;;;;;;;;;;;20.93;44.71;101958.88;5011000;28;19980;-85
2022/04/14 09:44:44;;;;;;;;;;;;;;;20.94;44.53;101955.03;5007944;28;19961;-85
2022/04/14 09:47:10;;;;;;;;;;;;;;;20.95;44.45;101961.34;5006394;28;19976;-84
2022/04/14 09:49:41;;;;;;;;;;;;;;;20.96;44.66;101961.06;5002366;28;19972;-84
2022/04/14 09:52:07;;;;;;;;;;;;;;;20.97;44.51;101961.88;5011023;28;20370;-83
2022/04/14 09:54:32;;;;;;;;;;;;;;;20.98;44.72;101957.22;5015551;28;19921;-84
2022/04/14 09:56:58;;;;;;;;;;;;;;;20.99;44.59;101953.34;5013112;28;20358;-84
2022/04/14 09:59:28;;;;;;;;;;;;;;;21.00;44.81;101957.75;5008460;28;19926;-85
2022/04/14 10:02:12;;;;;;;;;;;;;;;21.01;44.69;101965.69;5000541;28;19922;-83
2022/04/14 10:04:42;;;;;;;;;;;;;;;21.02;44.57;101972.03;5006908;28;19930;-82
2022/04/14 10:07:07;;;;;;;;;;;;;;;21.02;44.67;101972.03;5009316;28;19921;-83
2022/04/14 10:09:35;;;;;;;;;;;;;;;21.03;44.73;101977.22;5011946;28;20026;-86
2022/04/14 10:12:00;;;;;;;;;;;;;;;21.04;44.81;101983.53;5010365;28;19932;-81
2022/04/14 10:14:26;;;;;;;;;;;;;;;21.03;44.71;101982.72;5012711;28;19926;-81
2022/04/14 10:16:52;;;;;;;;;;;;;;;21.04;44.74;101983.53;5013730;28;20040;-82
2022/04/14 10:19:20;;;;;;;;;;;;;;;21.06;44.46;101990.38;5002448;28;19961;-80
2022/04/14 10:21:46;;;;;;;;;;;;;;;21.06;44.77;101995.88;5010138;28;20381;-79
2022/04/14 10:24:11;;;;;;;;;;;;;;;21.07;44.75;102010.47;5013709;28;19932;-81
2022/04/14 10:26:37;;;;;;;;;;;;;;;21.09;44.68;102011.81;5024369;28;20024;-81
2022/04/14 10:29:04;;;;;;;;;;;;;;;21.10;44.64;102007.13;5023531;28;19983;-79
2022/04/14 10:31:33;;;;;;;;;;;;;;;21.11;44.31;102003.28;5014438;28;20294;-84
2022/04/14 10:34:03;;;;;;;;;;;;;;;21.11;44.29;102001.34;5007945;28;19918;-87
2022/04/14 10:36:28;;;;;;;;;;;;;;;21.12;44.83;101999.44;5012184;28;19966;-84
2022/04/14 10:38:55;;;;;;;;;;;;;;;21.12;44.47;102005.75;5011337;28;19960;-86
2022/04/14 10:41:23;;;;;;;;;;;;;;;21.14;44.59;101997.22;5007262;28;19929;-85
2022/04/14 10:43:48;;;;;;;;;;;;;;;21.13;44.60;101999.13;5007191;28;19929;-84
2022/04/14 10:46:17;;;;;;;;;;;;;;;21.14;44.70;101994.47;5007937;28;19925;-87
2022/04/14 10:48:46;;;;;;;;;;;;;;;21.16;44.28;101995.00;5007435;28;19995;-87
2022/04/14 10:51:27;;;;;;;;;;;;;;;21.15;44.32;101990.63;5015534;28;19921;-86
2022/04/14 10:53:52;;;;;;;;;;;;;;;21.17;44.44;101991.97;5005656;28;20012;-83
2022/04/14 10:56:33;;;;;;;;;;;;;;;21.19;44.50;101991.69;5007927;28;20473;-83
2022/04/14 10:58:59;;;;;;;;;;;;;;;21.20;44.44;101984.28;5006139;28;20464;-84
2022/04/14 11:01:43;;;;;;;;;;;;;;;21.21;44.25;101986.72;5016698;28;20240;-84
2022/04/14 11:04:21;;;;;;;;;;;;;;;21.21;44.18;101986.72;5011847;28;19936;-85
2022/04/14 11:06:47;;;;;;;;;;;;;;;21.23;44.31;101984.53;5007110;28;20408;-87
2022/04/14 11:09:31;;;;;;;;;;;;;;;21.24;44.50;101985.34;5005676;28;19922;-81
2022/04/14 11:12:00;;;;;;;;;;;;;;;21.24;44.17;101980.66;5009056;28;19925;-82
2022/04/14 11:14:26;;;;;;;;;;;;;;;21.27;44.56;101990.25;5008963;28;19921;-81
2022/04/14 11:16:52;;;;;;;;;;;;;;;21.27;44.52;101977.38;5007162;28;20058;-81
2022/04/14 11:19:17;;;;;;;;;;;;;;;21.29;44.45;101986.16;5003380;28;19930;-82
2022/04/14 11:21:58;;;;;;;;;;;;;;;21.29;44.16;101986.16;5004998;28;19925;-82
2022/04/14 11:24:53;;;;;;;;;;;;;;;21.30;44.40;101986.97;5004512;28;19976;-83
2022/04/14 11:27:21;;;;;;;;;;;;;;;21.30;44.07;101979.53;5003836;28;19968;-80
2022/04/14 11:29:47;;;;;;;;;;;;;;;21.31;44.15;101977.59;5006958;28;19936;-82
2022/04/14 11:32:13;;;;;;;;;;;;;;;21.33;44.50;101984.47;4991665;28;20259;-81
2022/04/14 11:34:40;;;;;;;;;;;;;;;21.33;44.30;101983.63;4990243;28;19922;-83
2022/04/14 11:37:25;;;;;;;;;;;;;;;21.34;44.56;101980.63;5008190;28;20389;-82
2022/04/14 11:40:09;;;;;;;;;;;;;;;21.33;44.18;101984.47;5007100;28;19921;-81
2022/04/14 11:42:35;;;;;;;;;;;;;;;21.34;44.28;101986.13;5012844;28;19918;-84
2022/04/14 11:45:00;;;;;;;;;;;;;;;21.35;44.38;101986.94;4988249;28;20378;-82
2022/04/14 11:47:26;;;;;;;;;;;;;;;21.35;44.15;101981.44;5008778;28;19940;-81
2022/04/14 11:49:52;;;;;;;;;;;;;;;21.36;44.29;101983.06;5008212;28;19922;-81
2022/04/14 11:52:20;;;;;;;;;;;;;;;21.36;44.16;101980.31;5010343;28;19937;-82
2022/04/14 11:54:46;;;;;;;;;;;;;;;21.35;44.47;101976.75;5012110;28;19940;-81
2022/04/14 11:57:12;;;;;;;;;;;;;;;21.36;44.25;101991.31;5015398;28;20460;-86
2022/04/14 11:59:37;;;;;;;;;;;;;;;21.35;44.21;101987.75;5013361;28;19921;-81
2022/04/14 12:02:04;;;;;;;;;;;;;;;21.35;44.13;101992.44;5011221;28;21108;-80
2022/04/14 12:04:36;;;;;;;;;;;;;;;21.34;44.11;101988.88;5010400;28;20433;-81
2022/04/14 12:07:02;;;;;;;;;;;;;;;21.35;44.25;101997.94;5009083;28;19918;-83
2022/04/14 12:09:28;;;;;;;;;;;;;;;21.34;44.27;101988.00;5010609;28;19971;-81
2022/04/14 12:11:53;;;;;;;;;;;;;;;21.32;44.27;101982.81;5012977;28;20395;-81
2022/04/14 12:14:20;;;;;;;;;;;;;;;21.33;44.24;101989.94;5013887;28;19926;-81
2022/04/14 12:16:49;;;;;;;;;;;;;;;21.34;43.90;101990.75;5017750;28;19976;-83
2022/04/14 12:19:14;;;;;;;;;;;;;;;21.33;43.98;101983.63;5016641;28;20412;-81
2022/04/14 12:21:40;;;;;;;;;;;;;;;21.33;44.03;101989.94;5006521;28;19937;-83
2022/04/14 12:24:05;;;;;;;;;;;;;;;21.33;44.04;101989.94;5007010;28;19926;-82
2022/04/14 12:26:34;;;;;;;;;;;;;;;21.33;43.91;101983.63;5016678;28;20274;-83
2022/04/14 12:28:59;;;;;;;;;;;;;;;21.33;43.92;101991.88;5015190;28;19944;-80
2022/04/14 12:31:28;;;;;;;;;;;;;;;21.33;43.77;101995.44;4994503;28;19921;-80